Time;durP1;ratioP1;P1;durP2;ratioP2;P2;SDS_P1;SDS_P2;PMS_P1;PMS_P2;Temp;Humidity;BMP_temperature;BMP_pressure;BME280_temperature;BME280_humidity;BME280_pressure;Samples;Min_cycle;Max_cycle;Signal;HPM_P1;HPM_P2
2022/12/27 00:01:52;;;;;;;16.02;13.27;;;9.70;99.90;;;;;;5085480;28;20235;-87
2022/12/27 00:04:41;;;;;;;16.90;13.63;;;9.60;99.90;;;;;;5096682;28;20226;-88
2022/12/27 00:07:29;;;;;;;19.48;13.45;;;9.70;99.90;;;;;;5103217;28;20223;-87
2022/12/27 00:10:19;;;;;;;17.70;13.65;;;9.70;99.90;;;;;;5102457;27;20222;-87
2022/12/27 00:13:09;;;;;;;19.40;13.57;;;9.80;99.90;;;;;;5088796;28;20220;-86
2022/12/27 00:16:03;;;;;;;17.90;14.00;;;9.70;99.90;;;;;;5088328;28;20599;-87
2022/12/27 00:18:53;;;;;;;15.75;12.68;;;9.80;99.90;;;;;;5128099;27;20219;-87
2022/12/27 00:21:41;;;;;;;18.45;12.90;;;9.70;99.90;;;;;;5132746;27;20227;-86
2022/12/27 00:24:30;;;;;;;17.70;13.05;;;9.70;99.90;;;;;;5122208;27;20601;-86
2022/12/27 00:27:19;;;;;;;20.75;12.68;;;9.70;99.90;;;;;;5087307;28;20228;-85
2022/12/27 00:30:10;;;;;;;13.50;12.07;;;9.70;99.90;;;;;;5099560;27;20655;-87
2022/12/27 00:32:59;;;;;;;17.58;13.30;;;9.80;99.90;;;;;;5099140;27;20297;-87
2022/12/27 00:35:48;;;;;;;16.60;12.65;;;9.80;99.90;;;;;;5099197;27;20223;-87
2022/12/27 00:38:37;;;;;;;15.48;12.20;;;9.80;99.90;;;;;;5095496;28;20729;-88
2022/12/27 00:41:26;;;;;;;17.15;12.75;;;9.70;99.90;;;;;;5092781;27;20234;-87
2022/12/27 00:44:15;;;;;;;14.60;11.82;;;9.70;99.90;;;;;;5097690;27;20820;-87
2022/12/27 00:47:05;;;;;;;16.40;12.45;;;9.80;99.90;;;;;;5104375;27;20710;-87
2022/12/27 00:49:54;;;;;;;18.73;12.88;;;9.80;99.90;;;;;;5104747;27;20236;-87
2022/12/27 00:52:43;;;;;;;17.75;12.02;;;9.80;99.90;;;;;;5097712;27;20230;-86
2022/12/27 00:55:31;;;;;;;16.15;12.43;;;9.80;99.90;;;;;;5097583;28;20219;-87
2022/12/27 00:58:21;;;;;;;14.98;11.77;;;9.80;99.90;;;;;;5092820;27;20718;-87
2022/12/27 01:01:12;;;;;;;16.27;11.70;;;9.70;99.90;;;;;;5097006;27;20358;-87
2022/12/27 01:04:03;;;;;;;14.50;11.48;;;9.80;99.90;;;;;;5102500;27;21032;-86
2022/12/27 01:06:51;;;;;;;16.45;12.27;;;9.80;99.90;;;;;;5099628;27;20233;-86
2022/12/27 01:09:40;;;;;;;16.60;12.27;;;9.90;99.90;;;;;;5096907;28;20219;-87
2022/12/27 01:12:29;;;;;;;17.35;11.80;;;9.90;99.90;;;;;;5104256;28;20222;-86
2022/12/27 01:15:18;;;;;;;16.02;12.23;;;9.90;99.90;;;;;;5100623;28;20218;-86
2022/12/27 01:18:07;;;;;;;16.52;11.90;;;9.80;99.90;;;;;;5101985;27;20301;-86
2022/12/27 01:20:57;;;;;;;15.63;11.10;;;9.90;99.90;;;;;;5107285;27;20223;-87
2022/12/27 01:23:46;;;;;;;14.43;10.77;;;9.80;99.90;;;;;;5135690;27;20233;-87
2022/12/27 01:26:35;;;;;;;15.32;11.18;;;9.90;99.90;;;;;;5102829;28;20222;-87
2022/12/27 01:29:26;;;;;;;14.60;11.00;;;9.90;99.90;;;;;;5102235;27;20248;-88
2022/12/27 01:32:15;;;;;;;14.57;10.95;;;9.90;99.90;;;;;;5105100;28;20797;-86
2022/12/27 01:35:04;;;;;;;14.95;11.30;;;9.90;99.90;;;;;;5107263;27;20219;-85
2022/12/27 01:37:54;;;;;;;14.45;11.32;;;9.90;99.90;;;;;;5108936;27;20226;-87
2022/12/27 01:40:43;;;;;;;15.15;10.15;;;9.90;99.90;;;;;;5108504;28;20219;-88
2022/12/27 01:43:37;;;;;;;13.68;10.40;;;9.90;99.90;;;;;;5108115;28;20401;-87
2022/12/27 01:46:27;;;;;;;15.98;11.02;;;9.90;99.90;;;;;;5102239;27;20353;-87
2022/12/27 01:49:15;;;;;;;14.07;10.77;;;9.90;99.90;;;;;;5107638;27;20227;-87
2022/12/27 01:52:04;;;;;;;17.20;10.60;;;9.90;99.90;;;;;;5093409;27;20225;-87
2022/12/27 01:54:59;;;;;;;15.45;10.35;;;9.80;99.90;;;;;;5108611;27;20226;-86
2022/12/27 01:57:51;;;;;;;13.88;10.40;;;9.90;99.90;;;;;;5099682;27;20230;-86
2022/12/27 02:00:45;;;;;;;11.55;9.77;;;9.90;99.90;;;;;;5104701;27;20234;-87
2022/12/27 02:03:37;;;;;;;13.35;9.75;;;9.80;99.90;;;;;;5124484;27;20281;-87
2022/12/27 02:06:27;;;;;;;12.55;9.63;;;9.90;99.90;;;;;;5109724;27;20235;-87
2022/12/27 02:09:31;;;;;;;12.63;9.80;;;9.90;99.90;;;;;;5106274;27;20222;-86
2022/12/27 02:12:22;;;;;;;12.73;10.35;;;9.90;99.90;;;;;;5117377;27;20226;-86
2022/12/27 02:15:11;;;;;;;13.57;10.02;;;9.90;99.90;;;;;;5105873;27;20223;-87
2022/12/27 02:18:01;;;;;;;13.20;10.38;;;9.90;99.90;;;;;;5111450;27;20705;-86
2022/12/27 02:21:26;;;;;;;12.10;10.18;;;9.90;99.90;;;;;;5100905;27;20707;-86
2022/12/27 02:24:30;;;;;;;12.25;10.15;;;9.90;99.90;;;;;;5078604;28;20216;-87
2022/12/27 02:27:35;;;;;;;14.45;10.27;;;9.90;99.90;;;;;;5098368;27;20234;-87
2022/12/27 02:30:25;;;;;;;14.10;10.35;;;9.90;99.90;;;;;;5100024;27;20216;-85
2022/12/27 02:33:19;;;;;;;10.88;9.52;;;9.80;99.90;;;;;;5107041;27;20218;-87
2022/12/27 02:36:12;;;;;;;13.23;9.93;;;9.70;99.90;;;;;;5103804;27;20347;-87
2022/12/27 02:39:03;;;;;;;12.07;9.25;;;9.70;99.90;;;;;;5106826;27;20231;-86
2022/12/27 02:54:51;;;;;;;10.95;9.07;;;9.50;99.90;;;;;;5098841;28;20238;-86
2022/12/27 02:57:45;;;;;;;11.15;9.05;;;9.50;99.90;;;;;;5100580;28;20310;-88
2022/12/27 03:04:04;;;;;;;13.20;9.73;;;9.50;99.90;;;;;;5134095;27;20226;-86
2022/12/27 03:07:11;;;;;;;13.00;9.85;;;9.50;99.90;;;;;;5103500;27;20741;-87
2022/12/27 03:16:36;;;;;;;14.45;9.63;;;9.50;99.90;;;;;;5092158;28;20702;-89
2022/12/27 03:25:48;;;;;;;16.23;9.82;;;9.30;99.90;;;;;;5110963;27;20235;-84
2022/12/27 03:34:59;;;;;;;6.18;4.70;;;8.50;99.90;;;;;;5120177;27;20225;-87
2022/12/27 03:38:03;;;;;;;6.25;3.17;;;8.40;99.90;;;;;;5107344;27;20215;-87
2022/12/27 03:44:23;;;;;;;5.72;3.08;;;7.80;99.90;;;;;;5107277;27;20222;-87
2022/12/27 03:47:17;;;;;;;4.90;2.15;;;7.90;99.90;;;;;;5125967;27;20215;-88
2022/12/27 03:50:14;;;;;;;6.82;2.22;;;7.70;99.90;;;;;;5086825;27;20224;-87
2022/12/27 03:53:07;;;;;;;4.30;1.38;;;7.60;99.90;;;;;;5089665;28;20214;-87
2022/12/27 03:55:56;;;;;;;4.65;1.40;;;7.30;99.90;;;;;;5093652;28;20237;-87
2022/12/27 03:58:45;;;;;;;6.75;1.85;;;7.10;99.90;;;;;;5088182;27;20223;-84
2022/12/27 04:01:34;;;;;;;3.60;1.25;;;7.00;99.90;;;;;;5092694;28;20235;-86
2022/12/27 04:04:23;;;;;;;4.57;1.10;;;7.00;99.90;;;;;;5127321;27;20227;-87
2022/12/27 04:07:15;;;;;;;5.50;1.20;;;7.00;99.90;;;;;;5103811;27;20230;-86
2022/12/27 04:34:54;;;;;;;5.35;1.40;;;6.80;99.90;;;;;;5107323;28;20226;-88
2022/12/27 04:37:44;;;;;;;5.05;1.60;;;6.90;99.90;;;;;;5107010;28;20732;-87
2022/12/27 04:56:06;;;;;;;10.37;1.70;;;6.90;99.90;;;;;;5101300;27;21316;-88
2022/12/27 05:02:04;;;;;;;6.00;1.50;;;6.90;99.90;;;;;;5113734;27;20229;-87
2022/12/27 05:04:53;;;;;;;7.57;1.50;;;7.00;99.90;;;;;;5111351;27;20241;-88
2022/12/27 05:14:01;;;;;;;8.05;1.67;;;6.70;99.90;;;;;;5101437;27;20494;-88
2022/12/27 05:16:50;;;;;;;6.77;1.63;;;6.70;99.90;;;;;;5103405;27;20267;-87
2022/12/27 05:19:39;;;;;;;8.87;1.90;;;6.70;99.90;;;;;;5110753;27;20225;-89
2022/12/27 05:25:37;;;;;;;10.82;1.70;;;6.60;99.90;;;;;;5116352;27;20222;-87
2022/12/27 05:28:27;;;;;;;9.50;2.10;;;6.60;99.90;;;;;;5123306;27;20211;-88
2022/12/27 05:31:17;;;;;;;8.23;1.70;;;6.70;99.90;;;;;;5114937;27;20238;-87
2022/12/27 05:34:06;;;;;;;5.87;1.50;;;6.60;99.90;;;;;;5111278;27;20305;-88
2022/12/27 05:36:55;;;;;;;7.33;1.80;;;6.50;99.90;;;;;;5095158;28;20238;-88
2022/12/27 05:39:44;;;;;;;9.37;2.07;;;6.60;99.90;;;;;;5100324;27;20227;-89
2022/12/27 05:42:33;;;;;;;16.83;1.93;;;6.40;99.90;;;;;;5107854;27;20233;-88
2022/12/27 05:45:23;;;;;;;9.67;2.37;;;6.40;99.90;;;;;;5097120;27;20292;-89
2022/12/27 05:48:11;;;;;;;7.67;1.83;;;6.40;99.90;;;;;;5107398;27;20222;-88
2022/12/27 05:51:05;;;;;;;10.77;1.83;;;6.40;99.90;;;;;;5093942;28;20223;-88
2022/12/27 05:53:53;;;;;;;8.03;2.00;;;6.40;99.90;;;;;;5109417;27;21126;-89
2022/12/27 05:56:42;;;;;;;9.17;1.97;;;6.40;99.90;;;;;;5104031;27;20234;-88
2022/12/27 05:59:31;;;;;;;12.40;2.03;;;6.30;99.90;;;;;;5138652;27;20230;-88
2022/12/27 06:02:21;;;;;;;9.37;2.10;;;6.30;99.90;;;;;;5112600;27;20220;-89
2022/12/27 06:05:11;;;;;;;8.87;2.10;;;6.40;99.90;;;;;;5097574;27;20225;-88
2022/12/27 06:08:00;;;;;;;11.73;2.20;;;6.40;99.90;;;;;;5120589;27;20230;-86
2022/12/27 06:10:48;;;;;;;11.23;2.50;;;6.10;99.90;;;;;;5098969;28;20221;-88
2022/12/27 06:13:38;;;;;;;10.30;2.40;;;6.20;99.90;;;;;;5112238;28;20794;-88
2022/12/27 06:16:27;;;;;;;12.23;2.17;;;6.20;99.90;;;;;;5099234;27;20316;-88
2022/12/27 06:19:18;;;;;;;11.17;2.67;;;6.20;99.90;;;;;;5126820;27;20246;-88
2022/12/27 06:22:07;;;;;;;12.47;2.47;;;6.10;99.90;;;;;;5106490;27;20216;-88
2022/12/27 06:24:55;;;;;;;9.63;2.17;;;6.00;99.90;;;;;;5110945;28;20956;-87
2022/12/27 06:27:44;;;;;;;9.87;2.27;;;5.90;99.90;;;;;;5140560;27;20572;-87
2022/12/27 06:30:33;;;;;;;10.87;2.10;;;5.80;99.90;;;;;;5109738;27;20222;-87
2022/12/27 06:33:24;;;;;;;10.60;2.43;;;5.90;99.90;;;;;;5132990;27;20287;-88
2022/12/27 06:36:15;;;;;;;10.13;2.20;;;5.90;99.90;;;;;;5097445;28;20243;-88
2022/12/27 06:39:04;;;;;;;10.30;2.30;;;6.00;99.90;;;;;;5102918;27;20214;-88
2022/12/27 06:41:55;;;;;;;10.23;2.47;;;5.90;99.90;;;;;;5106416;28;20232;-88
2022/12/27 06:44:43;;;;;;;11.37;2.10;;;5.90;99.90;;;;;;5104746;28;20237;-87
2022/12/27 06:47:32;;;;;;;13.87;2.70;;;5.90;99.90;;;;;;5115543;28;20218;-88
2022/12/27 06:50:21;;;;;;;12.80;2.70;;;5.90;99.90;;;;;;5106301;28;20649;-87
2022/12/27 06:53:13;;;;;;;9.63;3.10;;;5.90;99.90;;;;;;5113411;27;20282;-87
2022/12/27 06:56:04;;;;;;;11.13;2.30;;;5.80;99.90;;;;;;5102474;27;20228;-86
2022/12/27 06:58:53;;;;;;;16.80;2.83;;;5.80;99.90;;;;;;5112366;28;20238;-86
2022/12/27 07:01:42;;;;;;;11.23;2.07;;;5.70;99.90;;;;;;5104349;28;20229;-87
2022/12/27 07:04:31;;;;;;;8.70;2.27;;;5.70;99.90;;;;;;5107851;28;20219;-85
2022/12/27 07:07:19;;;;;;;12.97;2.20;;;5.80;99.90;;;;;;5089386;27;20229;-86
2022/12/27 07:10:10;;;;;;;17.13;2.20;;;5.80;99.90;;;;;;5109287;27;20222;-85
2022/12/27 07:12:59;;;;;;;15.47;2.60;;;5.70;99.90;;;;;;5115338;27;20219;-84
2022/12/27 07:15:48;;;;;;;9.73;2.77;;;5.70;99.90;;;;;;5093753;27;20254;-85
2022/12/27 07:18:37;;;;;;;13.63;2.20;;;5.60;99.90;;;;;;5107863;27;20318;-85
2022/12/27 07:21:28;;;;;;;12.20;2.30;;;5.60;99.90;;;;;;5107947;27;20267;-85
2022/12/27 07:24:17;;;;;;;11.03;2.93;;;5.70;99.90;;;;;;5098354;28;20773;-85
2022/12/27 07:27:07;;;;;;;11.53;2.60;;;5.70;99.90;;;;;;5110152;27;20243;-85
2022/12/27 07:29:59;;;;;;;12.57;2.53;;;5.70;99.90;;;;;;5115084;27;20223;-86
2022/12/27 07:32:48;;;;;;;13.87;2.50;;;5.60;99.90;;;;;;5152125;27;20222;-82
2022/12/27 07:35:37;;;;;;;7.50;2.23;;;5.60;99.90;;;;;;5112476;28;20309;-85
2022/12/27 07:38:32;;;;;;;13.10;2.30;;;5.60;99.90;;;;;;5113654;27;20219;-85
2022/12/27 07:41:21;;;;;;;10.47;3.00;;;5.60;99.90;;;;;;5110020;28;20227;-84
2022/12/27 07:44:11;;;;;;;10.87;3.23;;;5.70;99.90;;;;;;5131335;27;20215;-86
2022/12/27 07:47:00;;;;;;;12.73;2.57;;;5.70;99.90;;;;;;5104304;27;20215;-85
2022/12/27 07:49:48;;;;;;;11.80;2.50;;;5.60;99.90;;;;;;5110182;27;20230;-85
2022/12/27 07:52:37;;;;;;;15.97;2.80;;;5.50;99.90;;;;;;5101491;27;20289;-85
2022/12/27 07:55:26;;;;;;;14.87;2.80;;;5.70;99.90;;;;;;5099037;28;20223;-85
2022/12/27 07:58:15;;;;;;;14.43;2.90;;;5.70;99.90;;;;;;5086794;28;20249;-85
2022/12/27 08:01:06;;;;;;;14.37;2.90;;;5.70;99.90;;;;;;5119626;27;20873;-85
2022/12/27 08:03:56;;;;;;;15.37;2.90;;;5.90;99.90;;;;;;5100984;27;20226;-85
2022/12/27 08:06:46;;;;;;;14.13;3.37;;;5.70;99.90;;;;;;5104147;28;20240;-84
2022/12/27 08:09:39;;;;;;;17.70;3.37;;;5.70;99.90;;;;;;5099339;27;20224;-85
2022/12/27 08:12:28;;;;;;;14.77;3.27;;;5.70;99.90;;;;;;5099072;27;20580;-85
2022/12/27 08:15:17;;;;;;;15.20;3.63;;;5.80;99.90;;;;;;5103704;27;20571;-85
2022/12/27 08:18:08;;;;;;;16.93;4.37;;;5.90;99.90;;;;;;5097326;27;20712;-85
2022/12/27 08:20:56;;;;;;;17.53;3.63;;;6.10;99.90;;;;;;5098393;27;20356;-84
2022/12/27 08:23:45;;;;;;;16.13;4.50;;;6.10;99.90;;;;;;5103091;28;20223;-81
2022/12/27 08:26:34;;;;;;;12.93;3.50;;;6.10;99.90;;;;;;5111700;27;20218;-85
2022/12/27 08:29:23;;;;;;;11.43;3.00;;;6.20;99.90;;;;;;5089504;27;20224;-85
2022/12/27 08:32:12;;;;;;;13.20;3.50;;;6.20;99.90;;;;;;5105743;28;20243;-85
2022/12/27 08:35:02;;;;;;;11.37;3.27;;;6.20;99.90;;;;;;5098414;28;20220;-86
2022/12/27 08:38:11;;;;;;;11.53;3.50;;;6.30;99.90;;;;;;5099859;27;20223;-84
2022/12/27 08:41:00;;;;;;;13.27;3.93;;;6.30;99.90;;;;;;5108245;27;20221;-86
2022/12/27 08:43:49;;;;;;;11.83;3.17;;;6.30;99.90;;;;;;5107104;27;20309;-86
2022/12/27 08:46:38;;;;;;;13.53;3.53;;;6.20;99.90;;;;;;5103296;27;20233;-84
2022/12/27 08:49:27;;;;;;;9.73;3.00;;;6.30;99.90;;;;;;5097632;27;20541;-86
2022/12/27 08:52:17;;;;;;;18.00;4.53;;;6.20;99.90;;;;;;5097309;28;20226;-86
2022/12/27 08:55:06;;;;;;;26.10;4.33;;;6.40;99.90;;;;;;5114153;27;20234;-85
2022/12/27 08:57:58;;;;;;;11.33;2.87;;;6.20;99.90;;;;;;5100012;27;20570;-85
2022/12/27 09:00:47;;;;;;;10.87;2.90;;;6.20;99.90;;;;;;5105100;27;20265;-85
2022/12/27 09:03:36;;;;;;;15.27;3.27;;;6.40;99.90;;;;;;5096153;27;20313;-85
2022/12/27 09:06:26;;;;;;;10.37;3.17;;;6.40;99.90;;;;;;5099914;27;20226;-85
2022/12/27 09:09:17;;;;;;;12.77;3.50;;;6.50;99.90;;;;;;5096832;28;20779;-85
2022/12/27 09:12:06;;;;;;;8.53;3.07;;;6.40;99.90;;;;;;5092954;27;20235;-84
2022/12/27 09:14:58;;;;;;;13.93;3.40;;;6.30;99.90;;;;;;5098684;27;20551;-85
2022/12/27 09:17:47;;;;;;;11.43;3.40;;;6.60;99.90;;;;;;5098074;28;20224;-85
2022/12/27 09:20:37;;;;;;;15.07;3.50;;;6.60;99.90;;;;;;5104964;28;20220;-85
2022/12/27 09:23:25;;;;;;;15.10;3.67;;;6.60;99.90;;;;;;5089211;27;20231;-86
2022/12/27 09:26:18;;;;;;;15.43;3.23;;;6.50;99.90;;;;;;5097225;27;20232;-85
2022/12/27 09:29:07;;;;;;;18.53;3.87;;;6.60;99.90;;;;;;5104148;27;20223;-84
2022/12/27 09:31:56;;;;;;;15.13;4.23;;;6.70;99.90;;;;;;5102500;27;20220;-85
2022/12/27 09:34:45;;;;;;;12.13;3.13;;;6.70;99.90;;;;;;5133008;27;20261;-85
2022/12/27 09:37:34;;;;;;;12.57;3.50;;;6.60;99.90;;;;;;5098458;28;20211;-84
2022/12/27 09:40:22;;;;;;;12.60;3.43;;;6.60;99.90;;;;;;5103179;27;20612;-85
2022/12/27 09:43:14;;;;;;;11.97;3.30;;;6.60;99.90;;;;;;5112393;27;20223;-85
2022/12/27 09:46:17;;;;;;;12.30;3.10;;;6.60;99.90;;;;;;5111121;28;20245;-85
2022/12/27 09:49:11;;;;;;;10.80;3.30;;;6.60;99.90;;;;;;5098660;28;20225;-85
2022/12/27 09:52:04;;;;;;;16.53;3.80;;;6.60;99.90;;;;;;5101516;27;20214;-85
2022/12/27 09:55:00;;;;;;;11.17;3.30;;;6.60;99.90;;;;;;5101752;28;20231;-85
2022/12/27 09:58:03;;;;;;;16.17;3.97;;;6.70;99.90;;;;;;5097397;28;20228;-85
2022/12/27 10:00:53;;;;;;;11.20;3.63;;;6.80;99.90;;;;;;5107078;27;20236;-85
2022/12/27 10:03:42;;;;;;;15.70;3.93;;;6.60;99.90;;;;;;5100374;28;20222;-85
2022/12/27 10:06:42;;;;;;;17.23;5.10;;;6.70;99.90;;;;;;5109965;27;20219;-85
2022/12/27 10:09:56;;;;;;;10.23;4.33;;;6.70;99.90;;;;;;5102617;27;20605;-85
2022/12/27 10:13:11;;;;;;;17.33;5.07;;;6.80;99.90;;;;;;5102827;28;20228;-85
2022/12/27 10:16:16;;;;;;;18.13;4.87;;;6.80;99.90;;;;;;5099193;27;20242;-85
2022/12/27 10:19:25;;;;;;;15.77;4.03;;;6.80;99.90;;;;;;5102271;27;20237;-85
2022/12/27 10:22:24;;;;;;;14.43;4.33;;;6.70;99.90;;;;;;5097740;28;20213;-85
2022/12/27 10:25:15;;;;;;;11.80;3.77;;;6.70;99.90;;;;;;5125411;27;20223;-85
2022/12/27 10:28:15;;;;;;;10.13;3.70;;;6.70;99.90;;;;;;5136675;27;20254;-85
2022/12/27 10:31:06;;;;;;;14.20;4.13;;;6.80;99.90;;;;;;5110423;27;20592;-87
2022/12/27 10:33:56;;;;;;;14.40;4.00;;;6.70;99.90;;;;;;5091032;27;20231;-85
2022/12/27 10:36:45;;;;;;;11.57;3.80;;;6.70;99.90;;;;;;5100243;28;20224;-85
2022/12/27 10:39:37;;;;;;;13.97;4.37;;;6.80;99.90;;;;;;5100542;27;20232;-86
2022/12/27 10:42:36;;;;;;;17.27;4.10;;;6.70;99.90;;;;;;5103107;27;20231;-85
2022/12/27 10:45:28;;;;;;;14.37;4.60;;;6.80;99.90;;;;;;5096249;28;20244;-86
2022/12/27 10:48:20;;;;;;;14.43;5.43;;;6.80;99.90;;;;;;5107901;27;20229;-86
2022/12/27 10:51:11;;;;;;;12.70;5.17;;;6.80;99.90;;;;;;5087335;28;20230;-85
2022/12/27 10:54:02;;;;;;;14.43;5.13;;;6.70;99.90;;;;;;5109790;27;20229;-86
2022/12/27 10:56:52;;;;;;;14.50;5.50;;;6.80;99.90;;;;;;5107600;27;20604;-84
2022/12/27 10:59:40;;;;;;;15.57;5.60;;;6.70;99.90;;;;;;5098621;28;20841;-86
2022/12/27 11:02:29;;;;;;;11.73;5.67;;;6.80;99.90;;;;;;5101921;27;20254;-85
2022/12/27 11:05:24;;;;;;;11.17;4.83;;;6.90;99.90;;;;;;5098137;28;20219;-85
2022/12/27 11:08:20;;;;;;;11.60;5.07;;;6.80;99.90;;;;;;5101083;27;20298;-83
2022/12/27 11:11:14;;;;;;;10.33;4.30;;;6.90;99.90;;;;;;5092217;27;20292;-84
2022/12/27 11:14:12;;;;;;;13.03;4.77;;;7.00;99.90;;;;;;5120594;27;20272;-85
2022/12/27 11:17:00;;;;;;;9.80;3.60;;;7.00;99.90;;;;;;5098862;27;20245;-85
2022/12/27 11:19:49;;;;;;;11.37;3.60;;;6.80;99.90;;;;;;5102346;27;20228;-84
2022/12/27 11:22:45;;;;;;;14.60;3.70;;;6.80;99.90;;;;;;5102716;28;20223;-86
2022/12/27 11:25:35;;;;;;;9.53;3.43;;;7.00;99.90;;;;;;5095353;27;20231;-84
2022/12/27 11:28:31;;;;;;;11.23;4.33;;;6.90;99.90;;;;;;5092320;27;20280;-83
2022/12/27 11:31:31;;;;;;;13.07;4.10;;;6.90;99.90;;;;;;5097281;27;20231;-84
2022/12/27 11:34:27;;;;;;;10.88;4.60;;;7.00;99.90;;;;;;5097200;27;20233;-85
2022/12/27 11:37:19;;;;;;;14.30;4.20;;;6.90;99.90;;;;;;5094591;27;20229;-84
2022/12/27 11:40:24;;;;;;;15.27;4.17;;;7.00;99.90;;;;;;5095411;27;20218;-85
2022/12/27 11:43:18;;;;;;;12.10;4.10;;;6.90;99.90;;;;;;5100712;27;21039;-83
2022/12/27 11:46:18;;;;;;;13.53;4.03;;;6.80;99.90;;;;;;5101095;27;20605;-83
2022/12/27 11:49:13;;;;;;;12.63;4.17;;;6.90;99.90;;;;;;5109005;27;20313;-82
2022/12/27 11:52:32;;;;;;;12.23;3.70;;;6.80;99.90;;;;;;5095956;28;20272;-85
2022/12/27 11:55:38;;;;;;;14.17;3.70;;;6.60;99.90;;;;;;5099219;28;20222;-83
2022/12/27 11:58:55;;;;;;;13.67;4.13;;;6.60;99.90;;;;;;5126099;27;20208;-85
2022/12/27 12:02:20;;;;;;;12.17;4.27;;;6.80;99.90;;;;;;5107851;27;21028;-84
2022/12/27 12:05:44;;;;;;;11.33;3.63;;;6.80;99.90;;;;;;5093296;27;20240;-83
2022/12/27 12:08:48;;;;;;;15.03;3.93;;;6.70;99.90;;;;;;5124830;27;20222;-82
2022/12/27 12:11:55;;;;;;;12.10;3.77;;;6.80;99.90;;;;;;5120668;27;20750;-83
2022/12/27 12:15:26;;;;;;;8.77;3.93;;;6.70;99.90;;;;;;5094507;28;20228;-83
2022/12/27 12:18:29;;;;;;;11.53;4.17;;;6.50;99.90;;;;;;5094745;27;20213;-82
2022/12/27 12:21:26;;;;;;;12.23;3.80;;;6.50;99.90;;;;;;5092929;27;20914;-82
2022/12/27 12:24:56;;;;;;;13.03;3.60;;;6.40;99.90;;;;;;5095395;27;20245;-82
2022/12/27 12:28:00;;;;;;;11.17;3.30;;;6.60;99.90;;;;;;5114719;27;21072;-83
2022/12/27 12:30:59;;;;;;;11.57;3.83;;;6.60;99.90;;;;;;5088728;28;20226;-80
2022/12/27 12:34:03;;;;;;;10.87;3.60;;;6.50;99.90;;;;;;5087499;28;20218;-81
2022/12/27 12:37:09;;;;;;;8.33;3.13;;;6.50;99.90;;;;;;5092818;27;20311;-80
2022/12/27 12:40:23;;;;;;;7.30;3.10;;;6.50;99.90;;;;;;5091026;27;20227;-84
2022/12/27 12:43:25;;;;;;;10.83;3.77;;;6.50;99.90;;;;;;5094728;28;20215;-83
2022/12/27 12:46:24;;;;;;;10.83;3.63;;;6.40;99.90;;;;;;5090111;28;20226;-82
2022/12/27 12:49:32;;;;;;;11.93;3.77;;;6.50;99.90;;;;;;5099647;27;20218;-81
2022/12/27 12:52:34;;;;;;;11.03;3.87;;;6.30;99.90;;;;;;5118715;27;20223;-81
2022/12/27 12:55:38;;;;;;;7.77;3.77;;;6.40;99.90;;;;;;5103851;27;20218;-81
2022/12/27 12:58:41;;;;;;;13.83;3.80;;;6.40;99.90;;;;;;5091320;28;20228;-80
2022/12/27 13:01:41;;;;;;;12.80;4.10;;;6.40;99.90;;;;;;5105105;27;20215;-79
2022/12/27 13:04:55;;;;;;;9.73;3.80;;;6.30;99.90;;;;;;5093133;27;20734;-79
2022/12/27 13:07:56;;;;;;;9.47;4.00;;;6.40;99.90;;;;;;5118616;27;20744;-80
2022/12/27 13:11:18;;;;;;;11.17;4.30;;;6.40;99.90;;;;;;5114032;27;20215;-79
2022/12/27 13:14:34;;;;;;;9.27;4.40;;;6.50;99.90;;;;;;5095585;28;20251;-80
2022/12/27 13:17:31;;;;;;;7.73;4.07;;;6.40;99.90;;;;;;5098200;27;20212;-79
2022/12/27 13:20:44;;;;;;;10.07;4.20;;;6.30;99.90;;;;;;5106591;27;20714;-81
2022/12/27 13:23:43;;;;;;;9.77;4.50;;;6.40;99.90;;;;;;5097735;28;20229;-80
2022/12/27 13:26:43;;;;;;;9.00;4.37;;;6.40;99.90;;;;;;5096554;28;20887;-79
2022/12/27 13:29:51;;;;;;;11.60;4.47;;;6.40;99.90;;;;;;5100056;28;20206;-79
2022/12/27 13:32:55;;;;;;;11.80;4.60;;;6.40;99.90;;;;;;5123675;27;20223;-79
2022/12/27 13:36:03;;;;;;;9.37;4.97;;;6.40;99.90;;;;;;5128058;27;20296;-79
2022/12/27 13:39:20;;;;;;;13.13;4.97;;;6.50;99.90;;;;;;5087912;27;20227;-86
2022/12/27 13:42:31;;;;;;;12.83;4.80;;;6.40;99.90;;;;;;5113625;27;20231;-84
2022/12/27 13:45:37;;;;;;;11.60;5.20;;;6.50;99.90;;;;;;5110907;27;20223;-82
2022/12/27 13:48:51;;;;;;;13.90;5.40;;;6.50;99.90;;;;;;5098055;28;20221;-82
2022/12/27 13:51:44;;;;;;;11.03;5.33;;;6.50;99.90;;;;;;5127329;27;20227;-81
2022/12/27 13:54:57;;;;;;;14.67;5.77;;;6.40;99.90;;;;;;5103912;27;20248;-82
2022/12/27 13:58:20;;;;;;;13.67;6.63;;;6.40;99.90;;;;;;5126417;27;20502;-80
2022/12/27 14:01:31;;;;;;;13.07;5.57;;;6.30;99.90;;;;;;5124417;27;20215;-80
2022/12/27 14:04:52;;;;;;;13.17;6.17;;;6.40;99.90;;;;;;5098375;27;20228;-79
2022/12/27 14:08:00;;;;;;;17.30;7.03;;;6.40;99.90;;;;;;5094930;27;20261;-79
2022/12/27 14:10:51;;;;;;;16.20;5.53;;;6.40;99.90;;;;;;5093294;27;20271;-80
2022/12/27 14:13:49;;;;;;;15.17;5.83;;;6.40;99.90;;;;;;5088853;28;20333;-79
2022/12/27 14:16:48;;;;;;;11.40;5.60;;;6.40;99.90;;;;;;5099058;27;20601;-81
2022/12/27 14:20:08;;;;;;;11.67;5.70;;;6.40;99.90;;;;;;5097786;28;20240;-82
2022/12/27 14:23:20;;;;;;;14.30;5.73;;;6.40;99.90;;;;;;5101083;28;20222;-81
2022/12/27 14:26:46;;;;;;;12.83;5.93;;;6.30;99.90;;;;;;5099009;27;20252;-82
2022/12/27 14:30:05;;;;;;;11.80;5.80;;;6.30;99.90;;;;;;5095329;27;20268;-81
2022/12/27 14:33:27;;;;;;;14.43;5.90;;;6.40;99.90;;;;;;5085362;28;20302;-80
2022/12/27 14:36:34;;;;;;;13.77;6.20;;;6.40;99.90;;;;;;5094423;27;20227;-81
2022/12/27 14:39:59;;;;;;;16.43;6.53;;;6.50;99.90;;;;;;5097641;28;20220;-82
2022/12/27 14:43:50;;;;;;;15.10;6.80;;;6.40;99.90;;;;;;5108726;27;20313;-80
2022/12/27 14:47:06;;;;;;;14.30;6.40;;;6.40;99.90;;;;;;5103028;27;20263;-80
2022/12/27 14:50:36;;;;;;;13.77;6.53;;;6.30;99.90;;;;;;5108612;27;20215;-83
2022/12/27 14:53:57;;;;;;;14.50;7.00;;;6.20;99.90;;;;;;5105329;27;20726;-84
2022/12/27 14:56:55;;;;;;;14.27;6.20;;;6.20;99.90;;;;;;5096531;27;20216;-82
2022/12/27 14:59:52;;;;;;;12.30;6.60;;;6.10;99.90;;;;;;5111964;27;20227;-83
2022/12/27 15:03:05;;;;;;;17.33;6.30;;;6.10;99.90;;;;;;5099991;28;20230;-83
2022/12/27 15:06:06;;;;;;;13.47;6.33;;;6.10;99.90;;;;;;5096775;27;20229;-84
2022/12/27 15:09:04;;;;;;;12.40;6.57;;;6.20;99.90;;;;;;5108228;27;20229;-85
2022/12/27 15:12:06;;;;;;;15.67;6.30;;;6.20;99.90;;;;;;5113716;27;20219;-84
2022/12/27 15:15:14;;;;;;;9.23;6.03;;;6.20;99.90;;;;;;5092510;28;20219;-84
2022/12/27 15:18:16;;;;;;;14.87;6.03;;;6.30;99.90;;;;;;5099470;27;20307;-80
2022/12/27 15:21:18;;;;;;;13.50;5.80;;;6.30;99.90;;;;;;5093936;27;20234;-84
2022/12/27 15:24:21;;;;;;;11.67;6.10;;;6.30;99.90;;;;;;5096353;28;20231;-82
2022/12/27 15:27:20;;;;;;;10.53;5.60;;;6.10;99.90;;;;;;5111755;27;20219;-83
2022/12/27 15:30:22;;;;;;;13.63;6.23;;;6.10;99.90;;;;;;5108372;27;20301;-83
2022/12/27 15:33:25;;;;;;;12.67;6.07;;;6.10;99.90;;;;;;5101565;27;20716;-85
2022/12/27 15:36:17;;;;;;;10.87;6.00;;;6.20;99.90;;;;;;5109757;27;20230;-84
2022/12/27 15:39:28;;;;;;;12.17;6.07;;;6.20;99.90;;;;;;5125573;27;20227;-84
2022/12/27 15:42:45;;;;;;;16.57;5.77;;;6.20;99.90;;;;;;5090722;28;20227;-83
2022/12/27 15:45:51;;;;;;;13.37;6.17;;;6.30;99.90;;;;;;5103219;27;20739;-82
2022/12/27 15:49:07;;;;;;;17.47;6.50;;;6.30;99.90;;;;;;5098016;27;20645;-82
2022/12/27 15:52:07;;;;;;;15.83;6.50;;;6.40;99.90;;;;;;5095729;27;20567;-81
2022/12/27 15:55:15;;;;;;;16.50;6.10;;;6.40;99.90;;;;;;5114968;27;20588;-83
2022/12/27 15:58:14;;;;;;;13.77;6.20;;;6.30;99.90;;;;;;5096620;28;20251;-83
2022/12/27 16:01:26;;;;;;;15.87;6.40;;;6.20;99.90;;;;;;5099926;28;20216;-83
2022/12/27 16:04:41;;;;;;;13.33;5.87;;;6.20;99.90;;;;;;5092573;27;20216;-81
2022/12/27 16:07:50;;;;;;;12.30;6.03;;;6.30;99.90;;;;;;5090269;28;20224;-82
2022/12/27 16:10:49;;;;;;;16.10;6.07;;;6.20;99.90;;;;;;5095003;27;20234;-80
2022/12/27 16:13:42;;;;;;;15.70;6.77;;;6.30;99.90;;;;;;5124133;27;20210;-81
2022/12/27 16:16:56;;;;;;;14.53;6.43;;;6.30;99.90;;;;;;5092237;27;20224;-81
2022/12/27 16:19:59;;;;;;;12.33;6.33;;;6.40;99.90;;;;;;5091364;27;20218;-80
2022/12/27 16:22:53;;;;;;;15.73;6.47;;;6.40;99.90;;;;;;5092206;27;20221;-80
2022/12/27 16:25:43;;;;;;;12.10;6.27;;;6.40;99.90;;;;;;5093777;28;20696;-81
2022/12/27 16:28:34;;;;;;;13.23;5.73;;;6.30;99.90;;;;;;5094046;27;20221;-81
2022/12/27 16:31:26;;;;;;;14.63;6.73;;;6.40;99.90;;;;;;5096507;27;20306;-80
2022/12/27 16:34:22;;;;;;;15.80;6.67;;;6.30;99.90;;;;;;5095702;28;22727;-80
2022/12/27 16:37:26;;;;;;;12.67;6.17;;;6.30;99.90;;;;;;5107583;27;20230;-79
2022/12/27 16:40:42;;;;;;;10.93;6.37;;;6.20;99.90;;;;;;5121560;27;20241;-80
2022/12/27 16:43:51;;;;;;;14.50;6.23;;;6.20;99.90;;;;;;5109641;27;20607;-79
2022/12/27 16:47:01;;;;;;;13.67;5.77;;;6.20;99.90;;;;;;5128221;27;20238;-81
2022/12/27 16:50:05;;;;;;;14.43;6.33;;;6.20;99.90;;;;;;5095930;27;20230;-80
2022/12/27 16:53:05;;;;;;;11.93;6.37;;;6.30;99.90;;;;;;5092156;28;20215;-80